createdAt,value
2023-03-01T00:01:20.098Z,-0.21
2023-03-01T00:03:48.482Z,-0.25
2023-03-01T00:06:17.071Z,-0.31
2023-03-01T00:08:45.477Z,-0.34
2023-03-01T00:11:16.014Z,-0.32
2023-03-01T00:13:45.360Z,-0.30
2023-03-01T00:16:15.247Z,-0.34
2023-03-01T00:18:45.204Z,-0.42
2023-03-01T00:21:14.305Z,-0.44
2023-03-01T00:23:42.884Z,-0.44
2023-03-01T00:26:13.309Z,-0.40
2023-03-01T00:28:43.183Z,-0.36
2023-03-01T00:31:13.352Z,-0.36
2023-03-01T00:33:41.814Z,-0.40
2023-03-01T00:36:13.380Z,-0.42
2023-03-01T00:38:44.091Z,-0.43
2023-03-01T00:41:14.962Z,-0.43
2023-03-01T00:43:44.018Z,-0.43
2023-03-01T00:46:14.866Z,-0.51
2023-03-01T00:48:43.581Z,-0.49
2023-03-01T00:51:14.820Z,-0.56
2023-03-01T00:53:43.532Z,-0.60
2023-03-01T00:56:13.728Z,-0.57
2023-03-01T00:58:42.273Z,-0.51
2023-03-01T01:01:18.559Z,-0.49
2023-03-01T01:03:48.890Z,-0.50
2023-03-01T01:06:20.695Z,-0.51
2023-03-01T01:08:49.684Z,-0.51
2023-03-01T01:11:18.788Z,-0.44
2023-03-01T01:13:48.348Z,-0.50
2023-03-01T01:16:17.436Z,-0.58
2023-03-01T01:18:45.721Z,-0.61
2023-03-01T01:21:15.696Z,-0.60
2023-03-01T01:23:47.121Z,-0.66
2023-03-01T01:26:18.076Z,-0.64
2023-03-01T01:28:46.683Z,-0.66
2023-03-01T01:31:15.322Z,-0.68
2023-03-01T01:33:44.237Z,-0.70
2023-03-01T01:36:13.116Z,-0.72
2023-03-01T01:38:43.459Z,-0.79
2023-03-01T01:41:14.073Z,-0.86
2023-03-01T01:43:45.307Z,-0.93
2023-03-01T01:46:22.416Z,-0.96
2023-03-01T01:48:55.889Z,-0.90
2023-03-01T01:51:27.857Z,-0.96
2023-03-01T01:54:02.603Z,-0.98
2023-03-01T01:56:32.792Z,-0.96
2023-03-01T01:59:01.356Z,-0.91
2023-03-01T02:01:29.717Z,-0.88
2023-03-01T02:03:58.347Z,-0.93
2023-03-01T02:06:32.369Z,-1.00
2023-03-01T02:09:05.272Z,-1.02
2023-03-01T02:11:37.340Z,-1.03
2023-03-01T02:14:05.923Z,-1.05
2023-03-01T02:16:34.954Z,-1.03
2023-03-01T02:19:05.963Z,-1.11
2023-03-01T02:21:43.383Z,-1.11
2023-03-01T02:24:21.710Z,-1.06
2023-03-01T02:26:56.082Z,-1.05
2023-03-01T02:29:26.684Z,-1.04
2023-03-01T02:31:57.527Z,-1.03
2023-03-01T02:34:30.153Z,-1.03
2023-03-01T02:37:04.119Z,-1.01
2023-03-01T02:39:38.307Z,-1.02
2023-03-01T02:42:07.451Z,-1.05
2023-03-01T02:44:37.249Z,-1.11
2023-03-01T02:47:07.109Z,-1.19
2023-03-01T02:49:38.243Z,-1.17
2023-03-01T02:52:23.650Z,-1.15
2023-03-01T02:54:58.532Z,-1.13
2023-03-01T02:57:29.434Z,-1.08
2023-03-01T03:00:01.844Z,-1.13
2023-03-01T03:02:38.769Z,-1.12
2023-03-01T03:05:14.871Z,-1.13
2023-03-01T03:07:44.806Z,-1.12
2023-03-01T03:10:16.148Z,-1.15
2023-03-01T03:12:44.738Z,-1.16
2023-03-01T03:15:14.580Z,-1.18
2023-03-01T03:17:45.988Z,-1.18
2023-03-01T03:20:20.114Z,-1.18
2023-03-01T03:22:49.782Z,-1.20
2023-03-01T03:25:18.802Z,-1.24
2023-03-01T03:27:49.353Z,-1.21
2023-03-01T03:30:22.635Z,-1.20
2023-03-01T03:32:54.127Z,-1.17
2023-03-01T03:35:25.336Z,-1.21
2023-03-01T03:38:07.341Z,-1.25
2023-03-01T03:40:38.281Z,-1.27
2023-03-01T03:43:09.594Z,-1.29
2023-03-01T03:45:39.688Z,-1.30
2023-03-01T03:48:11.333Z,-1.34
2023-03-01T03:50:40.843Z,-1.31
2023-03-01T03:53:11.768Z,-1.29
2023-03-01T03:55:40.849Z,-1.32
2023-03-01T03:58:11.479Z,-1.28
2023-03-01T04:00:43.501Z,-1.28
2023-03-01T04:03:13.131Z,-1.29
2023-03-01T04:05:43.042Z,-1.29
2023-03-01T04:08:11.367Z,-1.31
2023-03-01T04:10:41.552Z,-1.34
2023-03-01T04:13:13.036Z,-1.39
2023-03-01T04:15:44.064Z,-1.35
2023-03-01T04:18:15.550Z,-1.40
2023-03-01T04:20:46.049Z,-1.34
2023-03-01T04:23:17.061Z,-1.44
2023-03-01T04:25:54.904Z,-1.43
2023-03-01T04:28:25.520Z,-1.53
2023-03-01T04:30:56.664Z,-1.50
2023-03-01T04:33:25.921Z,-1.55
2023-03-01T04:35:54.449Z,-1.47
2023-03-01T04:38:23.188Z,-1.50
2023-03-01T04:40:51.422Z,-1.53
2023-03-01T04:43:19.722Z,-1.56
2023-03-01T04:45:47.937Z,-1.55
2023-03-01T04:48:17.616Z,-1.57
2023-03-01T04:50:45.827Z,-1.53
2023-03-01T04:53:14.034Z,-1.50
2023-03-01T04:55:42.241Z,-1.53
2023-03-01T04:58:10.594Z,-1.47
2023-03-01T05:00:38.841Z,-1.48
2023-03-01T05:03:07.105Z,-1.53
2023-03-01T05:05:39.267Z,-1.54
2023-03-01T05:08:09.481Z,-1.57
2023-03-01T05:10:39.830Z,-1.64
2023-03-01T05:13:08.682Z,-1.65
2023-03-01T05:15:37.573Z,-1.60
2023-03-01T05:18:08.214Z,-1.62
2023-03-01T05:20:37.813Z,-1.67
2023-03-01T05:23:07.214Z,-1.73
2023-03-01T05:25:41.090Z,-1.77
2023-03-01T05:28:13.530Z,-1.75
2023-03-01T05:30:42.082Z,-1.85
2023-03-01T05:33:14.601Z,-1.85
2023-03-01T05:35:46.611Z,-1.88
2023-03-01T05:38:15.341Z,-1.97
2023-03-01T05:40:44.549Z,-1.97
2023-03-01T05:43:13.254Z,-1.92
2023-03-01T05:45:42.645Z,-1.93
2023-03-01T05:48:13.490Z,-1.93
2023-03-01T05:50:45.157Z,-2.00
2023-03-01T05:53:15.841Z,-2.05
2023-03-01T05:55:45.272Z,-2.03
2023-03-01T05:58:16.080Z,-1.98
2023-03-01T06:00:45.548Z,-1.95
2023-03-01T06:03:15.554Z,-1.94
2023-03-01T06:05:45.598Z,-2.01
2023-03-01T06:08:15.039Z,-1.95
2023-03-01T06:10:43.385Z,-1.97
2023-03-01T06:13:11.586Z,-1.99
2023-03-01T06:15:40.011Z,-2.04
2023-03-01T06:18:08.266Z,-2.07
2023-03-01T06:20:36.534Z,-2.05
2023-03-01T06:23:06.142Z,-2.06
2023-03-01T06:25:34.995Z,-2.08
2023-03-01T06:28:03.274Z,-2.07
2023-03-01T06:30:47.214Z,-2.07
2023-03-01T06:33:15.560Z,-2.05
2023-03-01T06:35:43.940Z,-2.04
2023-03-01T06:38:15.900Z,-2.06
2023-03-01T06:40:44.164Z,-2.01
2023-03-01T06:43:12.600Z,-2.02
2023-03-01T06:45:40.845Z,-2.01
2023-03-01T06:48:09.736Z,-1.98
2023-03-01T06:50:39.564Z,-1.99
2023-03-01T06:53:07.814Z,-1.90
2023-03-01T06:55:37.567Z,-1.84
2023-03-01T06:58:05.897Z,-1.83
2023-03-01T07:00:34.799Z,-1.79
2023-03-01T07:03:04.412Z,-1.72
2023-03-01T07:05:32.807Z,-1.69
2023-03-01T07:08:00.999Z,-1.63
2023-03-01T07:10:29.681Z,-1.57
2023-03-01T07:13:00.366Z,-1.57
2023-03-01T07:15:29.602Z,-1.52
2023-03-01T07:17:59.035Z,-1.50
2023-03-01T07:20:27.302Z,-1.49
2023-03-01T07:22:56.106Z,-1.39
2023-03-01T07:25:24.357Z,-1.28
2023-03-01T07:27:53.356Z,-1.20
2023-03-01T07:30:26.842Z,-1.13
2023-03-01T07:32:55.842Z,-0.99
2023-03-01T07:35:24.390Z,-0.87
2023-03-01T07:37:52.849Z,-0.84
2023-03-01T07:40:21.413Z,-0.77
2023-03-01T07:42:49.733Z,-0.65
2023-03-01T07:45:18.105Z,-0.55
2023-03-01T07:47:47.744Z,-0.44
2023-03-01T07:50:16.473Z,-0.30
2023-03-01T07:52:46.914Z,-0.16
2023-03-01T07:55:15.605Z,-0.11
2023-03-01T07:57:44.299Z,0.03
2023-03-01T08:00:14.102Z,0.10
2023-03-01T08:02:43.045Z,0.21
2023-03-01T08:05:12.977Z,0.29
2023-03-01T08:07:41.201Z,0.31
2023-03-01T08:10:10.631Z,0.44
2023-03-01T08:12:39.290Z,0.60
2023-03-01T08:15:08.690Z,0.63
2023-03-01T08:17:36.927Z,0.74
2023-03-01T08:20:07.940Z,0.89
2023-03-01T08:22:37.590Z,0.99
2023-03-01T08:25:06.424Z,1.13
2023-03-01T08:27:34.638Z,1.12
2023-03-01T08:30:02.887Z,1.31
2023-03-01T08:32:31.157Z,1.50
2023-03-01T08:34:59.514Z,1.61
2023-03-01T08:37:28.751Z,1.62
2023-03-01T08:40:08.166Z,1.69
2023-03-01T08:42:36.508Z,1.76
2023-03-01T08:45:05.137Z,1.91
2023-03-01T08:47:34.451Z,1.93
2023-03-01T08:50:02.811Z,1.95
2023-03-01T08:52:31.288Z,1.99
2023-03-01T08:54:59.606Z,2.02
2023-03-01T08:57:29.367Z,2.09
2023-03-01T08:59:58.158Z,2.19
2023-03-01T09:02:26.452Z,2.24
2023-03-01T09:04:54.750Z,2.24
2023-03-01T09:07:22.996Z,2.46
2023-03-01T09:09:54.367Z,2.52
2023-03-01T09:12:22.679Z,2.59
2023-03-01T09:14:52.496Z,2.67
2023-03-01T09:17:22.478Z,2.66
2023-03-01T09:19:50.813Z,2.66
2023-03-01T09:22:19.058Z,2.66
2023-03-01T09:24:47.378Z,2.62
2023-03-01T09:27:15.700Z,2.78
2023-03-01T09:29:44.002Z,2.88
2023-03-01T09:32:13.688Z,2.86
2023-03-01T09:34:56.804Z,3.04
2023-03-01T09:37:25.054Z,3.17
2023-03-01T09:39:53.272Z,3.27
2023-03-01T09:42:21.650Z,3.36
2023-03-01T09:44:53.744Z,3.56
2023-03-01T09:47:26.387Z,3.67
2023-03-01T09:50:02.416Z,3.63
2023-03-01T09:52:36.782Z,3.84
2023-03-01T09:55:12.617Z,3.92
2023-03-01T09:57:48.398Z,4.22
2023-03-01T10:00:29.081Z,4.16
2023-03-01T10:03:11.032Z,4.31
2023-03-01T10:05:46.080Z,4.28
2023-03-01T10:08:39.893Z,4.35
2023-03-01T10:11:25.081Z,4.43
2023-03-01T10:14:00.762Z,4.49
2023-03-01T10:16:39.249Z,4.46
2023-03-01T10:19:14.308Z,4.75
2023-03-01T10:21:47.616Z,4.82
2023-03-01T10:24:19.990Z,4.77
2023-03-01T10:26:55.979Z,4.86
2023-03-01T10:29:27.940Z,4.98
2023-03-01T10:31:57.089Z,4.91
2023-03-01T10:34:31.249Z,5.06
2023-03-01T10:37:09.971Z,5.26
2023-03-01T10:39:39.328Z,5.11
2023-03-01T10:42:20.940Z,5.42
2023-03-01T10:44:50.986Z,5.37
2023-03-01T10:47:25.671Z,5.40
2023-03-01T10:50:00.960Z,5.57
2023-03-01T10:52:32.487Z,5.65
2023-03-01T10:55:02.993Z,5.74
2023-03-01T10:57:37.165Z,5.52
2023-03-01T11:00:27.189Z,5.65
2023-03-01T11:03:13.049Z,5.57
2023-03-01T11:05:56.569Z,5.72
2023-03-01T11:08:35.064Z,5.70
2023-03-01T11:11:20.296Z,5.91
2023-03-01T11:13:59.973Z,6.12
2023-03-01T11:16:33.012Z,5.92
2023-03-01T11:19:18.521Z,6.01
2023-03-01T11:22:03.714Z,6.15
2023-03-01T11:24:43.687Z,6.00
2023-03-01T11:27:21.575Z,6.29
2023-03-01T11:29:55.016Z,5.91
2023-03-01T11:32:27.330Z,5.93
2023-03-01T11:35:01.454Z,6.14
2023-03-01T11:37:43.281Z,6.34
2023-03-01T11:40:18.189Z,6.22
2023-03-01T11:42:54.135Z,6.38
2023-03-01T11:45:25.963Z,6.38
2023-03-01T11:48:15.916Z,6.37
2023-03-01T11:50:48.427Z,6.69
2023-03-01T11:53:40.273Z,6.88
2023-03-01T11:56:18.977Z,6.84
2023-03-01T11:59:19.566Z,6.89
2023-03-01T12:02:03.522Z,6.74
2023-03-01T12:04:56.252Z,6.79
2023-03-01T12:07:33.655Z,6.88
2023-03-01T12:10:21.564Z,7.07
2023-03-01T12:13:15.268Z,7.07
2023-03-01T12:15:58.986Z,7.24
2023-03-01T12:18:52.795Z,7.09
2023-03-01T12:21:37.387Z,7.17
2023-03-01T12:24:36.995Z,7.20
2023-03-01T12:27:23.793Z,7.03
2023-03-01T12:30:01.610Z,7.07
2023-03-01T12:32:55.748Z,7.10
2023-03-01T12:35:49.930Z,7.13
2023-03-01T12:38:35.167Z,7.32
2023-03-01T12:41:30.703Z,7.39
2023-03-01T12:44:13.255Z,7.20
2023-03-01T12:46:58.922Z,7.31
2023-03-01T12:49:32.280Z,7.56
2023-03-01T12:52:03.632Z,7.48
2023-03-01T12:54:34.305Z,7.73
2023-03-01T12:57:10.154Z,7.42
2023-03-01T12:59:45.524Z,7.28
2023-03-01T13:02:18.483Z,7.53
2023-03-01T13:04:59.216Z,7.56
2023-03-01T13:07:34.021Z,7.58
2023-03-01T13:10:16.855Z,7.60
2023-03-01T13:12:47.699Z,7.50
2023-03-01T13:15:35.519Z,7.41
2023-03-01T13:18:06.579Z,7.57
2023-03-01T13:20:48.947Z,7.79
2023-03-01T13:23:28.224Z,7.69
2023-03-01T13:26:18.666Z,7.71
2023-03-01T13:29:02.245Z,7.74
2023-03-01T13:32:11.183Z,7.57
2023-03-01T13:34:57.408Z,7.91
2023-03-01T13:37:37.267Z,7.81
2023-03-01T13:40:23.621Z,7.84
2023-03-01T13:43:04.699Z,7.98
2023-03-01T13:45:39.147Z,7.74
2023-03-01T13:48:17.063Z,7.69
2023-03-01T13:50:50.013Z,7.61
2023-03-01T13:53:20.502Z,7.69
2023-03-01T13:55:50.511Z,7.83
2023-03-01T13:58:23.883Z,7.86
2023-03-01T14:00:58.934Z,8.00
2023-03-01T14:03:29.795Z,7.99
2023-03-01T14:06:14.561Z,7.87
2023-03-01T14:08:44.754Z,7.67
2023-03-01T14:11:48.315Z,7.91
2023-03-01T14:14:32.377Z,8.01
2023-03-01T14:17:10.450Z,7.94
2023-03-01T14:19:45.861Z,7.82
2023-03-01T14:22:26.130Z,7.69
2023-03-01T14:24:58.315Z,7.81
2023-03-01T14:27:30.545Z,7.73
2023-03-01T14:30:00.713Z,7.93
2023-03-01T14:32:30.899Z,7.81
2023-03-01T14:35:02.101Z,7.78
2023-03-01T14:37:33.276Z,7.54
2023-03-01T14:40:03.726Z,7.87
2023-03-01T14:42:37.294Z,7.97
2023-03-01T14:45:08.264Z,8.06
2023-03-01T14:47:39.306Z,8.06
2023-03-01T14:50:12.143Z,7.81
2023-03-01T14:52:44.551Z,7.88
2023-03-01T14:55:19.447Z,7.91
2023-03-01T14:57:50.434Z,7.87
2023-03-01T15:00:22.039Z,8.19
2023-03-01T15:02:53.599Z,8.39
2023-03-01T15:05:28.142Z,8.97
2023-03-01T15:07:57.163Z,8.61
2023-03-01T15:10:27.313Z,8.21
2023-03-01T15:12:56.014Z,8.32
2023-03-01T15:15:36.067Z,8.17
2023-03-01T15:18:07.554Z,8.15
2023-03-01T15:20:37.418Z,8.47
2023-03-01T15:23:06.140Z,8.95
2023-03-01T15:25:35.557Z,8.91
2023-03-01T15:28:04.636Z,9.38
2023-03-01T15:30:38.652Z,10.03
2023-03-01T15:33:30.589Z,9.61
2023-03-01T15:36:01.241Z,8.67
2023-03-01T15:38:32.858Z,8.89
2023-03-01T15:41:03.851Z,9.16
2023-03-01T15:43:44.056Z,8.61
2023-03-01T15:46:21.208Z,8.11
2023-03-01T15:48:55.629Z,7.27
2023-03-01T15:51:32.203Z,7.13
2023-03-01T15:54:02.933Z,7.25
2023-03-01T15:56:31.415Z,7.05
2023-03-01T15:59:01.275Z,6.65
2023-03-01T16:01:29.820Z,6.57
2023-03-01T16:03:59.279Z,6.45
2023-03-01T16:06:29.437Z,6.49
2023-03-01T16:08:57.903Z,6.41
2023-03-01T16:11:26.152Z,6.31
2023-03-01T16:13:54.606Z,6.20
2023-03-01T16:16:23.687Z,6.15
2023-03-01T16:18:54.382Z,6.05
2023-03-01T16:21:25.738Z,6.01
2023-03-01T16:23:55.335Z,5.93
2023-03-01T16:26:23.624Z,5.99
2023-03-01T16:28:51.887Z,5.91
2023-03-01T16:31:21.335Z,5.90
2023-03-01T16:33:52.470Z,5.82
2023-03-01T16:36:24.465Z,5.80
2023-03-01T16:38:53.650Z,5.82
2023-03-01T16:41:25.966Z,5.78
2023-03-01T16:43:54.215Z,5.69
2023-03-01T16:46:24.607Z,5.59
2023-03-01T16:48:53.876Z,5.43
2023-03-01T16:51:22.914Z,5.39
2023-03-01T16:53:51.792Z,5.42
2023-03-01T16:56:20.792Z,5.37
2023-03-01T16:58:50.599Z,5.30
2023-03-01T17:01:20.612Z,5.28
2023-03-01T17:03:51.364Z,5.12
2023-03-01T17:06:23.199Z,5.10
2023-03-01T17:08:51.624Z,5.10
2023-03-01T17:11:21.740Z,5.06
2023-03-01T17:13:51.359Z,4.93
2023-03-01T17:16:21.378Z,4.89
2023-03-01T17:18:49.882Z,4.83
2023-03-01T17:21:18.248Z,4.59
2023-03-01T17:23:48.067Z,4.61
2023-03-01T17:26:16.299Z,4.52
2023-03-01T17:28:44.945Z,4.57
2023-03-01T17:31:14.582Z,4.45
2023-03-01T17:33:43.084Z,4.51
2023-03-01T17:36:11.740Z,4.54
2023-03-01T17:38:40.968Z,4.45
2023-03-01T17:41:12.133Z,4.41
2023-03-01T17:43:40.667Z,4.42
2023-03-01T17:46:08.976Z,4.26
2023-03-01T17:48:39.199Z,4.20
2023-03-01T17:51:08.675Z,4.19
2023-03-01T17:53:37.012Z,4.28
2023-03-01T17:56:07.532Z,4.30
2023-03-01T17:58:35.842Z,4.30
2023-03-01T18:01:12.643Z,4.20
2023-03-01T18:03:46.524Z,4.21
2023-03-01T18:06:17.693Z,4.23
2023-03-01T18:08:46.783Z,4.22
2023-03-01T18:11:15.752Z,4.24
2023-03-01T18:13:44.317Z,4.21
2023-03-01T18:16:14.838Z,4.10
2023-03-01T18:18:46.165Z,4.02
2023-03-01T18:21:15.384Z,4.08
2023-03-01T18:23:43.771Z,4.10
2023-03-01T18:26:17.537Z,4.13
2023-03-01T18:28:47.455Z,4.17
2023-03-01T18:31:18.791Z,4.14
2023-03-01T18:33:49.016Z,4.07
2023-03-01T18:36:21.228Z,4.02
2023-03-01T18:38:49.745Z,3.95
2023-03-01T18:41:18.295Z,3.87
2023-03-01T18:43:46.784Z,3.86
2023-03-01T18:46:15.092Z,3.82
2023-03-01T18:48:43.532Z,3.75
2023-03-01T18:51:15.524Z,3.78
2023-03-01T18:53:43.881Z,3.75
2023-03-01T18:56:12.537Z,3.76
2023-03-01T18:58:43.618Z,3.72
2023-03-01T19:01:15.973Z,3.61
2023-03-01T19:03:44.765Z,3.53
2023-03-01T19:06:14.951Z,3.47
2023-03-01T19:08:44.492Z,3.47
2023-03-01T19:11:15.092Z,3.47
2023-03-01T19:13:43.642Z,3.48
2023-03-01T19:16:13.972Z,3.47
2023-03-01T19:18:50.172Z,3.48
2023-03-01T19:21:21.091Z,3.45
2023-03-01T19:23:49.822Z,3.46
2023-03-01T19:26:20.273Z,3.41
2023-03-01T19:28:49.372Z,3.42
2023-03-01T19:31:19.764Z,3.40
2023-03-01T19:33:48.482Z,3.38
2023-03-01T19:36:16.872Z,3.32
2023-03-01T19:38:46.479Z,3.32
2023-03-01T19:41:18.169Z,3.29
2023-03-01T19:43:48.094Z,3.26
2023-03-01T19:46:16.717Z,3.20
2023-03-01T19:48:45.678Z,3.12
2023-03-01T19:51:14.289Z,3.16
2023-03-01T19:53:43.968Z,3.09
2023-03-01T19:56:13.574Z,2.99
2023-03-01T19:58:43.315Z,2.82
2023-03-01T20:01:20.392Z,2.73
2023-03-01T20:03:48.843Z,2.72
2023-03-01T20:06:20.332Z,2.68
2023-03-01T20:08:48.962Z,2.67
2023-03-01T20:11:20.301Z,2.73
2023-03-01T20:13:49.101Z,2.68
2023-03-01T20:16:19.062Z,2.67
2023-03-01T20:18:47.608Z,2.60
2023-03-01T20:21:24.141Z,2.53
2023-03-01T20:23:52.864Z,2.47
2023-03-01T20:26:23.283Z,2.42
2023-03-01T20:28:53.599Z,2.44
2023-03-01T20:31:24.024Z,2.34
2023-03-01T20:33:52.391Z,2.30
2023-03-01T20:36:20.681Z,2.24
2023-03-01T20:38:48.985Z,2.22
2023-03-01T20:41:17.300Z,2.30
2023-03-01T20:43:53.756Z,2.28
2023-03-01T20:46:23.975Z,2.20
2023-03-01T20:48:52.697Z,2.13
2023-03-01T20:51:21.013Z,2.08
2023-03-01T20:53:49.407Z,2.11
2023-03-01T20:56:18.850Z,2.09
2023-03-01T20:59:05.436Z,2.06
2023-03-01T21:01:33.744Z,2.10
2023-03-01T21:04:02.300Z,2.12
2023-03-01T21:06:31.566Z,2.09
2023-03-01T21:09:00.418Z,2.11
2023-03-01T21:11:28.728Z,2.12
2023-03-01T21:13:57.529Z,2.05
2023-03-01T21:16:27.681Z,2.10
2023-03-01T21:18:56.263Z,2.16
2023-03-01T21:21:25.099Z,2.15
2023-03-01T21:23:54.354Z,2.08
2023-03-01T21:26:24.153Z,2.01
2023-03-01T21:28:56.627Z,1.93
2023-03-01T21:31:28.581Z,1.81
2023-03-01T21:33:58.752Z,1.87
2023-03-01T21:36:29.018Z,1.86
2023-03-01T21:38:57.584Z,1.84
2023-03-01T21:41:27.697Z,1.85
2023-03-01T21:43:59.308Z,1.94
2023-03-01T21:46:31.739Z,1.86
2023-03-01T21:49:00.497Z,1.88
2023-03-01T21:51:30.557Z,1.85
2023-03-01T21:54:01.171Z,1.82
2023-03-01T21:56:32.135Z,1.85
2023-03-01T21:59:00.553Z,1.81
2023-03-01T22:01:30.342Z,1.79
2023-03-01T22:04:00.585Z,1.82
2023-03-01T22:06:33.857Z,1.82
2023-03-01T22:09:05.989Z,1.86
2023-03-01T22:11:36.165Z,1.80
2023-03-01T22:14:05.066Z,1.72
2023-03-01T22:16:37.271Z,1.79
2023-03-01T22:19:07.434Z,1.68
2023-03-01T22:21:36.168Z,1.73
2023-03-01T22:24:04.565Z,1.72
2023-03-01T22:26:34.509Z,1.76
2023-03-01T22:29:05.555Z,1.69
2023-03-01T22:31:35.554Z,1.65
2023-03-01T22:34:04.939Z,1.58
2023-03-01T22:36:34.462Z,1.54
2023-03-01T22:39:02.990Z,1.50
2023-03-01T22:41:33.648Z,1.41
2023-03-01T22:44:01.987Z,1.33
2023-03-01T22:46:31.233Z,1.25
2023-03-01T22:49:01.068Z,1.28
2023-03-01T22:51:31.882Z,1.25
2023-03-01T22:54:00.189Z,1.19
2023-03-01T22:56:30.789Z,1.12
2023-03-01T22:59:00.215Z,0.98
2023-03-01T23:01:28.813Z,0.96
2023-03-01T23:03:57.390Z,0.89
2023-03-01T23:06:30.833Z,0.72
2023-03-01T23:09:01.488Z,0.63
2023-03-01T23:11:30.151Z,0.58
2023-03-01T23:14:00.329Z,0.54
2023-03-01T23:16:28.719Z,0.48
2023-03-01T23:18:59.296Z,0.46
2023-03-01T23:21:29.164Z,0.39
2023-03-01T23:23:57.536Z,0.39
2023-03-01T23:26:27.469Z,0.33
2023-03-01T23:28:56.565Z,0.34
2023-03-01T23:31:25.640Z,0.40
2023-03-01T23:33:54.725Z,0.39
2023-03-01T23:36:26.190Z,0.47
2023-03-01T23:38:58.720Z,0.57
2023-03-01T23:41:29.972Z,0.67
2023-03-01T23:43:59.586Z,0.73
2023-03-01T23:46:30.170Z,0.69
2023-03-01T23:48:59.066Z,0.74
2023-03-01T23:51:27.673Z,0.78
2023-03-01T23:54:00.425Z,0.78
2023-03-01T23:56:31.620Z,0.78
2023-03-01T23:59:02.406Z,0.83
